OIAW

Ahvaz International Airport

Airport
ICAO code
OIAW
IATA Code
AWZ
Summary
ICAO Region
MID
ICAO Territory
Location

Ahvaz, Khuzestan

Serving
Ahvas
Elevation
66 ft
Coordinates
31° 20' 15" N , 48° 45' 37" E
KCC
Metar
Observation
OIAW 301400Z 18006KT 9999 SCT040 BKN100 27/17 Q1014
Station
Ahwaz
Date/Time
2022-11-30 14:00:00
Wind direction
180°
Wind speed
06 kts
Lowest cloud amount
scattered clouds
Temperature
27°C
Dew point
17°C
Humidity
54%
QNH
1014 hPa
Weather condition
n/a

Ahvaz (or Ahwaz) airport serves the city of Ahvaz, west Iran.

Climatology

Hot Desert Climate (Köppen climate classification BWh)

Runways

Designator Length Width Surface Rops
12/30 3398 45 ASP Yes/Yes

Airport map

Aerial View

SKYbrary Partners:

Safety knowledge contributed by: